This is the latest recevied weather packets stored in our database for station/object IU3IOK-3. If no packets are shown the sender has not sent any weather packets the latest 10 day(s).
| Time | Temp. | Humidity | Pressure | Rain* | Wind** | Luminosity | Snow |
|---|---|---|---|---|---|---|---|
| 1777270301 | 21.67° C | 38% | 1018.9 hPa | - | - | - | - |
| 1777269401 | 20.56° C | 39% | 1018.9 hPa | - | - | - | - |
| 1777268501 | 20° C | 41% | 1018.8 hPa | - | - | - | - |
| 1777267601 | 18.89° C | 45% | 1018.8 hPa | - | - | - | - |
| 1777266702 | 17.22° C | 49% | 1018.7 hPa | - | - | - | - |
| 1777265802 | 16.11° C | 52% | 1018.6 hPa | - | - | - | - |
| 1777264901 | 16.11° C | 53% | 1018.6 hPa | - | - | - | - |
| 1777264001 | 16.11° C | 54% | 1018.5 hPa | - | - | - | - |
| 1777263101 | 16.11° C | 56% | 1018.4 hPa | - | - | - | - |
| 1777262201 | 16.11° C | 57% | 1018.4 hPa | - | - | - | - |
| 1777261301 | 16.11° C | 58% | 1018.3 hPa | - | - | - | - |
| 1777260401 | 16.67° C | 59% | 1018.3 hPa | - | - | - | - |
| 1777259501 | 16.67° C | 60% | 1018.3 hPa | - | - | - | - |
| 1777258601 | 16.67° C | 63% | 1018.2 hPa | - | - | - | - |
| 1777257701 | 16.67° C | 65% | 1018.2 hPa | - | - | - | - |
| 1777256801 | 16.67° C | 68% | 1018.2 hPa | - | - | - | - |
| 1777255901 | 16.67° C | 67% | 1018.1 hPa | - | - | - | - |
| 1777255001 | 17.22° C | 65% | 1018.1 hPa | - | - | - | - |
| 1777254101 | 17.22° C | 65% | 1018 hPa | - | - | - | - |
| 1777253201 | 17.22° C | 64% | 1018 hPa | - | - | - | - |
| 1777252301 | 17.78° C | 63% | 1018 hPa | - | - | - | - |
| 1777251401 | 17.78° C | 62% | 1018.1 hPa | - | - | - | - |
| 1777250501 | 17.78° C | 61% | 1018.3 hPa | - | - | - | - |
| 1777249601 | 18.33° C | 63% | 1018.2 hPa | - | - | - | - |
| 1777248701 | 18.33° C | 62% | 1018 hPa | - | - | - | - |
* Rain since midnight (hover to see other rain measurements)
** Current wind speed in m/s (hover to see current wind gust speed)